Sumisemaru No.5 — JE3162 — position and weather

sailwx.info

Track history (hours):
 
Tides and Currents Weather Stations Pressure Air Temp Water Temp Dewpoint Dewpoint Depression Visibility Wind Speed Wind Dir Waves Ship Positions

Sumisemaru No.5

Last reported at 2016-Dec-09 05:10 UTC. Time now 2016-Dec-10 03:04 UTC.
Position N 35°15' E 139°47'.

Length 96 m; draft 5.2 m.

Type: Cargo ship. MMSI: 431700423.

Date/timePositionNaut miles runAvg speedWind from/ knotsBaromVisibWave heightAir tempDewpointWater temp
2016-Dec-09 05:10N 35°15' E 139°47'812.9
2016-Dec-09 04:33N 35°22' E 139°42'1111.5
2016-Dec-09 03:33N 35°30' E 139°51'4 0.7
2016-Dec-08 22:14N 35°32' E 139°56'710.5
2016-Dec-08 21:33N 35°27' E 139°50'1110.4
2016-Dec-08 20:33N 35°17' E 139°46'240 5.2
2016-Dec-06 22:32N 34°14' E 135°05'2 0.2
2016-Dec-06 08:33N 34°14' E 135°08'20 9.5
2016-Dec-06 06:27N 34°34' E 135°02'7 0.5
2016-Dec-05 16:09N 34°37' E 134°55'813.7
2016-Dec-05 15:33N 34°36' E 135°04'  
2016-Dec-03 05:22N 34°11' E 135°03'5 0.7
2016-Dec-02 21:32N 34°14' E 135°08'0 0.0
2016-Dec-02 20:29N 34°14' E 135°08'0 0.0
2016-Dec-02 19:32N 34°14' E 135°08'0 0.0
2016-Dec-02 18:32N 34°14' E 135°08'0 0.0
2016-Dec-02 17:29N 34°14' E 135°08'0 0.0
2016-Dec-02 16:26N 34°14' E 135°08'0 0.0
2016-Dec-02 15:32N 34°14' E 135°08'0 0.0
2016-Dec-02 14:32N 34°14' E 135°08'0 0.0
2016-Dec-02 13:26N 34°14' E 135°08'0 0.0
2016-Dec-02 12:32N 34°14' E 135°08'0 0.0
2016-Dec-02 11:32N 34°14' E 135°08'2 2.1
2016-Dec-02 10:33N 34°14' E 135°05'1 1.1
2016-Dec-02 09:28N 34°13' E 135°06'0 0.0
2016-Dec-02 08:19N 34°13' E 135°06'0 0.0
2016-Dec-02 07:19N 34°13' E 135°06'0 0.0
2016-Dec-02 06:22N 34°13' E 135°06'0 0.0
2016-Dec-02 05:10N 34°13' E 135°06'0 0.0
2016-Dec-02 04:28N 34°13' E 135°06'0 0.0
2016-Dec-02 03:25N 34°13' E 135°06'0 0.0
2016-Dec-02 02:31N 34°13' E 135°06'0 0.0
2016-Dec-02 01:31N 34°13' E 135°06'0 0.0
2016-Dec-02 00:31N 34°13' E 135°06'0 0.0
2016-Dec-01 23:07N 34°13' E 135°06'0 0.1
2016-Dec-01 22:25N 34°13' E 135°06'0 0.1
2016-Dec-01 21:31N 34°13' E 135°06'0 0.0
2016-Dec-01 20:31N 34°13' E 135°06'0 0.1
2016-Dec-01 19:31N 34°13' E 135°06'0 0.0
2016-Dec-01 18:28N 34°13' E 135°06'0 0.0
2016-Dec-01 17:16N 34°13' E 135°06'0 0.0
2016-Dec-01 16:28N 34°13' E 135°06'0 0.0
2016-Dec-01 15:28N 34°13' E 135°06'0 0.0
2016-Dec-01 14:22N 34°13' E 135°06'0 0.0
2016-Dec-01 13:16N 34°13' E 135°06'0 0.0
2016-Dec-01 12:22N 34°13' E 135°06'0 0.0
2016-Dec-01 11:25N 34°13' E 135°06'0 0.1
2016-Dec-01 10:31N 34°13' E 135°06'20 8.8
2016-Dec-01 08:14N 34°33' E 135°03'8 0.5
2016-Nov-30 17:08N 34°37' E 134°55'610.5
2016-Nov-30 16:33N 34°37' E 135°02'1010.6
2016-Nov-30 15:33N 34°26' E 135°03'1312.7
2016-Nov-30 14:33N 34°14' E 134°59'24210.8
2016-Nov-29 16:03N 35°12' E 139°46'612.0
2016-Nov-29 15:33N 35°17' E 139°44'9 8.5
2016-Nov-29 14:33N 35°26' E 139°41'0 0.0
2016-Nov-29 13:33N 35°26' E 139°41'0 0.0
2016-Nov-29 12:33N 35°26' E 139°41'0 0.0
2016-Nov-29 11:30N 35°26' E 139°41'0 0.0
2016-Nov-29 10:27N 35°26' E 139°41'0 0.0
2016-Nov-29 09:33N 35°26' E 139°41'0 0.0
2016-Nov-29 08:33N 35°26' E 139°41'0 0.0
2016-Nov-29 07:27N 35°26' E 139°41'0 0.1
2016-Nov-29 06:30N 35°26' E 139°41'0 0.0
2016-Nov-29 05:33N 35°26' E 139°41'  
Track history (hours):
 
Tides and Currents Weather Stations Pressure Air Temp Water Temp Dewpoint Dewpoint Depression Visibility Wind Speed Wind Dir Waves Ship Positions

Sumisemaru No.5

Last reported at 2016-Dec-09 05:10 UTC. Time now 2016-Dec-10 03:04 UTC.
Position N 35°15' E 139°47'.

Length 96 m; draft 5.2 m.

Type: Cargo ship. MMSI: 431700423.

Date/timePositionNaut miles runAvg speedWind from/ knotsBaromVisibWave heightAir tempDewpointWater temp
2016-Dec-09 05:10N 35°15' E 139°47'812.9
2016-Dec-09 04:33N 35°22' E 139°42'1111.5
2016-Dec-09 03:33N 35°30' E 139°51'4 0.7
2016-Dec-08 22:14N 35°32' E 139°56'710.5
2016-Dec-08 21:33N 35°27' E 139°50'1110.4
2016-Dec-08 20:33N 35°17' E 139°46'240 5.2
2016-Dec-06 22:32N 34°14' E 135°05'2 0.2
2016-Dec-06 08:33N 34°14' E 135°08'20 9.5
2016-Dec-06 06:27N 34°34' E 135°02'7 0.5
2016-Dec-05 16:09N 34°37' E 134°55'813.7
2016-Dec-05 15:33N 34°36' E 135°04'  
2016-Dec-03 05:22N 34°11' E 135°03'5 0.7
2016-Dec-02 21:32N 34°14' E 135°08'0 0.0
2016-Dec-02 20:29N 34°14' E 135°08'0 0.0
2016-Dec-02 19:32N 34°14' E 135°08'0 0.0
2016-Dec-02 18:32N 34°14' E 135°08'0 0.0
2016-Dec-02 17:29N 34°14' E 135°08'0 0.0
2016-Dec-02 16:26N 34°14' E 135°08'0 0.0
2016-Dec-02 15:32N 34°14' E 135°08'0 0.0
2016-Dec-02 14:32N 34°14' E 135°08'0 0.0
2016-Dec-02 13:26N 34°14' E 135°08'0 0.0
2016-Dec-02 12:32N 34°14' E 135°08'0 0.0
2016-Dec-02 11:32N 34°14' E 135°08'2 2.1
2016-Dec-02 10:33N 34°14' E 135°05'1 1.1
2016-Dec-02 09:28N 34°13' E 135°06'0 0.0
2016-Dec-02 08:19N 34°13' E 135°06'0 0.0
2016-Dec-02 07:19N 34°13' E 135°06'0 0.0
2016-Dec-02 06:22N 34°13' E 135°06'0 0.0
2016-Dec-02 05:10N 34°13' E 135°06'0 0.0
2016-Dec-02 04:28N 34°13' E 135°06'0 0.0
2016-Dec-02 03:25N 34°13' E 135°06'0 0.0
2016-Dec-02 02:31N 34°13' E 135°06'0 0.0
2016-Dec-02 01:31N 34°13' E 135°06'0 0.0
2016-Dec-02 00:31N 34°13' E 135°06'0 0.0
2016-Dec-01 23:07N 34°13' E 135°06'0 0.1
2016-Dec-01 22:25N 34°13' E 135°06'0 0.1
2016-Dec-01 21:31N 34°13' E 135°06'0 0.0
2016-Dec-01 20:31N 34°13' E 135°06'0 0.1
2016-Dec-01 19:31N 34°13' E 135°06'0 0.0
2016-Dec-01 18:28N 34°13' E 135°06'0 0.0
2016-Dec-01 17:16N 34°13' E 135°06'0 0.0
2016-Dec-01 16:28N 34°13' E 135°06'0 0.0
2016-Dec-01 15:28N 34°13' E 135°06'0 0.0
2016-Dec-01 14:22N 34°13' E 135°06'0 0.0
2016-Dec-01 13:16N 34°13' E 135°06'0 0.0
2016-Dec-01 12:22N 34°13' E 135°06'0 0.0
2016-Dec-01 11:25N 34°13' E 135°06'0 0.1
2016-Dec-01 10:31N 34°13' E 135°06'20 8.8
2016-Dec-01 08:14N 34°33' E 135°03'8 0.5
2016-Nov-30 17:08N 34°37' E 134°55'610.5
2016-Nov-30 16:33N 34°37' E 135°02'1010.6
2016-Nov-30 15:33N 34°26' E 135°03'1312.7
2016-Nov-30 14:33N 34°14' E 134°59'24210.8
2016-Nov-29 16:03N 35°12' E 139°46'612.0
2016-Nov-29 15:33N 35°17' E 139°44'9 8.5
2016-Nov-29 14:33N 35°26' E 139°41'0 0.0
2016-Nov-29 13:33N 35°26' E 139°41'0 0.0
2016-Nov-29 12:33N 35°26' E 139°41'0 0.0
2016-Nov-29 11:30N 35°26' E 139°41'0 0.0
2016-Nov-29 10:27N 35°26' E 139°41'0 0.0
2016-Nov-29 09:33N 35°26' E 139°41'0 0.0
2016-Nov-29 08:33N 35°26' E 139°41'0 0.0
2016-Nov-29 07:27N 35°26' E 139°41'0 0.1
2016-Nov-29 06:30N 35°26' E 139°41'0 0.0
2016-Nov-29 05:33N 35°26' E 139°41'  

Dump ship's entire track history